FLS weather

Flinders Island Airport
Flinders Island, Tasmania, Australia

Public forecast

Using degrees Celsius for public forecast. Weather courtesy of forecast.io.

Closest aviation weather report (METAR) to Flinders Island Airport

Closest report is Launceston Airport, 94.2 nm (174.4 km) SSW. Retrieved 2020/03/31 05:30 UTC (28 minutes ago):

YMLT 310530Z AUTO 33018KT 9999 // NCD 16/10 Q1013 RF000/0000

Closest aviation forecast (TAF) to Flinders Island Airport

Closest forecast is Launceston Airport, 94.2 nm (174.4 km) SSW. Retrieved 2020-03-31 00:00 UTC (6 hours ago):

TAF YMLT 302311Z 3100/0100 36008KT 9999 SCT030 FM310300 34014KT 9999 BKN035 FM310800 34005KT 9999 BKN015 BECMG 3110/3112 35004KT 9999 BKN008 BECMG 3122/0100 31008KT 9999 FEW012 BKN018 PROB30 3111/3123 0300 FG